Αρχική σελίδα
METAR-TAF:

METAR-TAF

Αεροδρόμια :

Tekamah Municipal Airport

Tekamah, Νεμπράσκα, Ηνωμένες Πολιτείες Αμερικής

γεωγραφικό πλάτος: 41-46-01N, γεωγραφικό μήκος: 096-10-40W, υψόμετρο: 313 μ

Παρών καιρός

Η αναφορά έγινε 21 λεπτά πριν, στις 23:54 UTC
Άνεμος 5 kt από Α/BA
Θερμοκρασία 28°C
Υγρασία 51%
Πίεση 1016 hPa
Ορατότητα: 16.1 χλμ
Καθαρός ουρανός

METAR: KTQE 222354Z AUTO 07005KT 10SM CLR 28/17 A3000 RMK AO2 SLP148 T02780167 10289 20261 56005

Χρόνος: 19:15 (00:15 UTC)


TAF: λείπει

Μετεωρολογικές αναφορές και προγνώσεις για περισσότερα από 4000 αεροδρόμια (δελτία METAR και TAF).

Οι διαθέσιμοι σταθμοί απεικονίζονται στο χάρτη με κίτρινες και κόκκινες κουκκίδες.

Μετακινήστε το ποντίκι πάνω από τις κουκκίδες για να δείτε το όνομα του σταθμού.

Στη συνέχεια, κάντε κλικ για να δείτε τις μετεωρολογικές αναφορές και τις προγνώσεις καιρού.

Για να αλλάξετε το χάρτη: κάντε κλικ στα πράσινα κουμπιά με τον μαύρο σταυρό για να ζουμάρετε, στο πράσινο κουμπί με την παύλα για να αφαιρέσετε το ζουμ ή στα πράσινα βέλη για να αντιπαραβάλλετε χάρτες.


METAR-TAF: